sensor_id;sensor_type;location;lat;lon;timestamp;temperature;humidity
10149;DHT22;5115;50.920;6.376;2023-09-07T00:01:23;20.90;99.90
10149;DHT22;5115;50.920;6.376;2023-09-07T00:03:48;20.70;99.90
10149;DHT22;5115;50.920;6.376;2023-09-07T00:06:14;20.70;99.90
10149;DHT22;5115;50.920;6.376;2023-09-07T00:08:39;20.70;99.90
10149;DHT22;5115;50.920;6.376;2023-09-07T00:11:08;20.60;99.90
10149;DHT22;5115;50.920;6.376;2023-09-07T00:13:37;20.60;99.90
10149;DHT22;5115;50.920;6.376;2023-09-07T00:16:04;20.60;99.90
10149;DHT22;5115;50.920;6.376;2023-09-07T00:18:33;20.60;99.90
10149;DHT22;5115;50.920;6.376;2023-09-07T00:20:59;20.60;99.90
10149;DHT22;5115;50.920;6.376;2023-09-07T00:23:26;20.60;99.90
10149;DHT22;5115;50.920;6.376;2023-09-07T00:25:51;20.70;99.90
10149;DHT22;5115;50.920;6.376;2023-09-07T00:28:17;20.70;99.90
10149;DHT22;5115;50.920;6.376;2023-09-07T00:30:44;20.60;99.90
10149;DHT22;5115;50.920;6.376;2023-09-07T00:33:09;20.50;99.90
10149;DHT22;5115;50.920;6.376;2023-09-07T00:35:36;20.40;99.90
10149;DHT22;5115;50.920;6.376;2023-09-07T00:38:02;20.40;99.90
10149;DHT22;5115;50.920;6.376;2023-09-07T00:40:28;20.50;99.90
10149;DHT22;5115;50.920;6.376;2023-09-07T00:42:54;20.50;99.90
10149;DHT22;5115;50.920;6.376;2023-09-07T00:45:20;20.30;99.90
10149;DHT22;5115;50.920;6.376;2023-09-07T00:47:45;20.30;99.90
10149;DHT22;5115;50.920;6.376;2023-09-07T00:50:11;20.30;99.90
10149;DHT22;5115;50.920;6.376;2023-09-07T00:52:43;20.30;99.90
10149;DHT22;5115;50.920;6.376;2023-09-07T00:55:09;20.40;99.90
10149;DHT22;5115;50.920;6.376;2023-09-07T00:57:35;20.40;99.90
10149;DHT22;5115;50.920;6.376;2023-09-07T01:00:03;20.30;99.90
10149;DHT22;5115;50.920;6.376;2023-09-07T01:02:29;20.30;99.90
10149;DHT22;5115;50.920;6.376;2023-09-07T01:04:56;20.20;99.90
10149;DHT22;5115;50.920;6.376;2023-09-07T01:07:25;20.10;99.90
10149;DHT22;5115;50.920;6.376;2023-09-07T01:09:56;20.00;99.90
10149;DHT22;5115;50.920;6.376;2023-09-07T01:12:23;20.00;99.90
10149;DHT22;5115;50.920;6.376;2023-09-07T01:14:49;20.00;99.90
10149;DHT22;5115;50.920;6.376;2023-09-07T01:17:14;20.10;99.90
10149;DHT22;5115;50.920;6.376;2023-09-07T01:19:41;20.00;99.90
10149;DHT22;5115;50.920;6.376;2023-09-07T01:22:08;20.00;99.90
10149;DHT22;5115;50.920;6.376;2023-09-07T01:24:34;20.00;99.90
10149;DHT22;5115;50.920;6.376;2023-09-07T01:27:03;19.90;99.90
10149;DHT22;5115;50.920;6.376;2023-09-07T01:29:30;19.80;99.90
10149;DHT22;5115;50.920;6.376;2023-09-07T01:31:56;19.70;99.90
10149;DHT22;5115;50.920;6.376;2023-09-07T01:34:22;19.80;99.90
10149;DHT22;5115;50.920;6.376;2023-09-07T01:36:49;19.70;99.90
10149;DHT22;5115;50.920;6.376;2023-09-07T01:39:14;19.70;99.90
10149;DHT22;5115;50.920;6.376;2023-09-07T01:41:40;19.80;99.90
10149;DHT22;5115;50.920;6.376;2023-09-07T01:44:05;19.70;99.90
10149;DHT22;5115;50.920;6.376;2023-09-07T01:46:31;19.80;99.90
10149;DHT22;5115;50.920;6.376;2023-09-07T01:48:56;19.90;99.90
10149;DHT22;5115;50.920;6.376;2023-09-07T01:51:22;20.00;99.90
10149;DHT22;5115;50.920;6.376;2023-09-07T01:53:48;20.00;99.90
10149;DHT22;5115;50.920;6.376;2023-09-07T01:56:17;20.10;99.90
10149;DHT22;5115;50.920;6.376;2023-09-07T01:58:43;20.10;99.90
10149;DHT22;5115;50.920;6.376;2023-09-07T02:01:23;20.10;99.90
10149;DHT22;5115;50.920;6.376;2023-09-07T02:03:49;20.10;99.90
10149;DHT22;5115;50.920;6.376;2023-09-07T02:06:15;20.30;99.90
10149;DHT22;5115;50.920;6.376;2023-09-07T02:08:40;20.30;99.90
10149;DHT22;5115;50.920;6.376;2023-09-07T02:11:06;20.30;99.90
10149;DHT22;5115;50.920;6.376;2023-09-07T02:13:31;20.30;99.90
10149;DHT22;5115;50.920;6.376;2023-09-07T02:15:57;20.30;99.90
10149;DHT22;5115;50.920;6.376;2023-09-07T02:18:23;20.20;99.90
10149;DHT22;5115;50.920;6.376;2023-09-07T02:20:48;20.30;99.90
10149;DHT22;5115;50.920;6.376;2023-09-07T02:23:14;20.20;99.90
10149;DHT22;5115;50.920;6.376;2023-09-07T02:25:40;20.20;99.90
10149;DHT22;5115;50.920;6.376;2023-09-07T02:28:06;20.10;99.90
10149;DHT22;5115;50.920;6.376;2023-09-07T02:30:32;20.20;99.90
10149;DHT22;5115;50.920;6.376;2023-09-07T02:32:57;20.10;99.90
10149;DHT22;5115;50.920;6.376;2023-09-07T02:35:23;20.00;99.90
10149;DHT22;5115;50.920;6.376;2023-09-07T02:37:48;20.10;99.90
10149;DHT22;5115;50.920;6.376;2023-09-07T02:40:14;20.20;99.90
10149;DHT22;5115;50.920;6.376;2023-09-07T02:42:41;20.10;99.90
10149;DHT22;5115;50.920;6.376;2023-09-07T02:45:11;20.10;99.90
10149;DHT22;5115;50.920;6.376;2023-09-07T02:47:38;20.10;99.90
10149;DHT22;5115;50.920;6.376;2023-09-07T02:50:04;20.00;99.90
10149;DHT22;5115;50.920;6.376;2023-09-07T02:52:30;20.00;99.90
10149;DHT22;5115;50.920;6.376;2023-09-07T02:54:56;19.90;99.90
10149;DHT22;5115;50.920;6.376;2023-09-07T02:57:21;19.90;99.90
10149;DHT22;5115;50.920;6.376;2023-09-07T02:59:47;19.80;99.90
10149;DHT22;5115;50.920;6.376;2023-09-07T03:02:12;19.80;99.90
10149;DHT22;5115;50.920;6.376;2023-09-07T03:04:38;19.70;99.90
10149;DHT22;5115;50.920;6.376;2023-09-07T03:07:03;19.70;99.90
10149;DHT22;5115;50.920;6.376;2023-09-07T03:09:29;19.70;99.90
10149;DHT22;5115;50.920;6.376;2023-09-07T03:11:54;19.70;99.90
10149;DHT22;5115;50.920;6.376;2023-09-07T03:14:20;19.60;99.90
10149;DHT22;5115;50.920;6.376;2023-09-07T03:16:45;19.60;99.90
10149;DHT22;5115;50.920;6.376;2023-09-07T03:19:14;20.10;99.90
10149;DHT22;5115;50.920;6.376;2023-09-07T03:21:39;19.50;99.90
10149;DHT22;5115;50.920;6.376;2023-09-07T03:24:05;19.40;99.90
10149;DHT22;5115;50.920;6.376;2023-09-07T03:26:31;19.40;99.90
10149;DHT22;5115;50.920;6.376;2023-09-07T03:28:56;19.40;99.90
10149;DHT22;5115;50.920;6.376;2023-09-07T03:31:42;19.40;99.90
10149;DHT22;5115;50.920;6.376;2023-09-07T03:34:07;19.30;99.90
10149;DHT22;5115;50.920;6.376;2023-09-07T03:36:33;19.30;99.90
10149;DHT22;5115;50.920;6.376;2023-09-07T03:38:58;19.40;99.90
10149;DHT22;5115;50.920;6.376;2023-09-07T03:41:27;19.40;99.90
10149;DHT22;5115;50.920;6.376;2023-09-07T03:43:56;19.30;99.90
10149;DHT22;5115;50.920;6.376;2023-09-07T03:46:21;19.30;99.90
10149;DHT22;5115;50.920;6.376;2023-09-07T03:48:47;19.10;99.90
10149;DHT22;5115;50.920;6.376;2023-09-07T03:51:13;19.10;99.90
10149;DHT22;5115;50.920;6.376;2023-09-07T03:53:39;19.20;99.90
10149;DHT22;5115;50.920;6.376;2023-09-07T03:56:04;19.10;99.90
10149;DHT22;5115;50.920;6.376;2023-09-07T03:58:30;19.00;99.90
10149;DHT22;5115;50.920;6.376;2023-09-07T04:00:59;19.00;99.90
10149;DHT22;5115;50.920;6.376;2023-09-07T04:03:25;19.00;99.90
10149;DHT22;5115;50.920;6.376;2023-09-07T04:05:51;19.10;99.90
10149;DHT22;5115;50.920;6.376;2023-09-07T04:08:16;19.10;99.90
10149;DHT22;5115;50.920;6.376;2023-09-07T04:10:42;19.10;99.90
10149;DHT22;5115;50.920;6.376;2023-09-07T04:13:08;19.20;99.90
10149;DHT22;5115;50.920;6.376;2023-09-07T04:15:40;19.30;99.90
10149;DHT22;5115;50.920;6.376;2023-09-07T04:18:06;19.20;99.90
10149;DHT22;5115;50.920;6.376;2023-09-07T04:20:31;19.20;99.90
10149;DHT22;5115;50.920;6.376;2023-09-07T04:22:57;19.20;99.90
10149;DHT22;5115;50.920;6.376;2023-09-07T04:25:23;19.10;99.90
10149;DHT22;5115;50.920;6.376;2023-09-07T04:27:48;19.10;99.90
10149;DHT22;5115;50.920;6.376;2023-09-07T04:30:14;19.20;99.90
10149;DHT22;5115;50.920;6.376;2023-09-07T04:32:39;19.10;99.90
10149;DHT22;5115;50.920;6.376;2023-09-07T04:35:05;19.20;99.90
10149;DHT22;5115;50.920;6.376;2023-09-07T04:37:31;19.10;99.90
10149;DHT22;5115;50.920;6.376;2023-09-07T04:39:57;19.10;99.90
10149;DHT22;5115;50.920;6.376;2023-09-07T04:42:22;19.10;99.90
10149;DHT22;5115;50.920;6.376;2023-09-07T04:44:48;19.10;99.90
10149;DHT22;5115;50.920;6.376;2023-09-07T04:47:14;19.10;99.90
10149;DHT22;5115;50.920;6.376;2023-09-07T04:49:41;19.00;99.90
10149;DHT22;5115;50.920;6.376;2023-09-07T04:52:06;19.00;99.90
10149;DHT22;5115;50.920;6.376;2023-09-07T04:54:32;19.00;99.90
10149;DHT22;5115;50.920;6.376;2023-09-07T04:56:58;18.90;99.90
10149;DHT22;5115;50.920;6.376;2023-09-07T04:59:23;19.00;99.90
10149;DHT22;5115;50.920;6.376;2023-09-07T05:01:49;19.00;99.90
10149;DHT22;5115;50.920;6.376;2023-09-07T05:04:14;19.00;99.90
10149;DHT22;5115;50.920;6.376;2023-09-07T05:06:40;18.90;99.90
10149;DHT22;5115;50.920;6.376;2023-09-07T05:09:07;18.90;99.90
10149;DHT22;5115;50.920;6.376;2023-09-07T05:11:32;18.90;99.90
10149;DHT22;5115;50.920;6.376;2023-09-07T05:14:00;18.90;99.90
10149;DHT22;5115;50.920;6.376;2023-09-07T05:16:27;18.80;99.90
10149;DHT22;5115;50.920;6.376;2023-09-07T05:18:52;18.80;99.90
10149;DHT22;5115;50.920;6.376;2023-09-07T05:21:18;18.80;99.90
10149;DHT22;5115;50.920;6.376;2023-09-07T05:23:44;18.80;99.90
10149;DHT22;5115;50.920;6.376;2023-09-07T05:26:09;18.80;99.90
10149;DHT22;5115;50.920;6.376;2023-09-07T05:28:35;18.90;99.90
10149;DHT22;5115;50.920;6.376;2023-09-07T05:31:00;18.90;99.90
10149;DHT22;5115;50.920;6.376;2023-09-07T05:33:26;19.00;99.90
10149;DHT22;5115;50.920;6.376;2023-09-07T05:35:51;19.10;99.90
10149;DHT22;5115;50.920;6.376;2023-09-07T05:38:17;19.00;99.90
10149;DHT22;5115;50.920;6.376;2023-09-07T05:40:44;19.00;99.90
10149;DHT22;5115;50.920;6.376;2023-09-07T05:43:13;19.10;99.90
10149;DHT22;5115;50.920;6.376;2023-09-07T05:45:41;19.20;99.90
10149;DHT22;5115;50.920;6.376;2023-09-07T05:48:07;19.30;99.90
10149;DHT22;5115;50.920;6.376;2023-09-07T05:50:35;19.30;99.90
10149;DHT22;5115;50.920;6.376;2023-09-07T05:53:01;19.40;99.90
10149;DHT22;5115;50.920;6.376;2023-09-07T05:55:26;19.50;99.90
10149;DHT22;5115;50.920;6.376;2023-09-07T05:57:54;19.60;99.90
10149;DHT22;5115;50.920;6.376;2023-09-07T06:00:20;19.70;99.90
10149;DHT22;5115;50.920;6.376;2023-09-07T06:02:46;19.90;99.90
10149;DHT22;5115;50.920;6.376;2023-09-07T06:05:12;20.20;99.90
10149;DHT22;5115;50.920;6.376;2023-09-07T06:07:37;20.40;99.90
10149;DHT22;5115;50.920;6.376;2023-09-07T06:10:03;20.60;99.90
10149;DHT22;5115;50.920;6.376;2023-09-07T06:12:31;20.90;99.90
10149;DHT22;5115;50.920;6.376;2023-09-07T06:14:56;21.20;99.90
10149;DHT22;5115;50.920;6.376;2023-09-07T06:17:22;21.60;99.90
10149;DHT22;5115;50.920;6.376;2023-09-07T06:19:48;21.90;99.90
10149;DHT22;5115;50.920;6.376;2023-09-07T06:22:13;21.80;99.90
10149;DHT22;5115;50.920;6.376;2023-09-07T06:24:39;21.80;99.90
10149;DHT22;5115;50.920;6.376;2023-09-07T06:27:04;22.00;99.90
10149;DHT22;5115;50.920;6.376;2023-09-07T06:29:30;21.90;99.90
10149;DHT22;5115;50.920;6.376;2023-09-07T06:31:55;22.00;99.90
10149;DHT22;5115;50.920;6.376;2023-09-07T06:34:21;22.40;99.90
10149;DHT22;5115;50.920;6.376;2023-09-07T06:36:46;22.50;99.90
10149;DHT22;5115;50.920;6.376;2023-09-07T06:39:12;22.60;99.90
10149;DHT22;5115;50.920;6.376;2023-09-07T06:41:38;22.70;99.90
10149;DHT22;5115;50.920;6.376;2023-09-07T06:44:03;22.90;99.90
10149;DHT22;5115;50.920;6.376;2023-09-07T06:46:29;23.20;99.90
10149;DHT22;5115;50.920;6.376;2023-09-07T06:48:54;23.30;99.90
10149;DHT22;5115;50.920;6.376;2023-09-07T06:51:20;23.70;99.90
10149;DHT22;5115;50.920;6.376;2023-09-07T06:53:45;23.90;99.90
10149;DHT22;5115;50.920;6.376;2023-09-07T06:56:11;24.10;99.90
10149;DHT22;5115;50.920;6.376;2023-09-07T06:58:37;24.30;99.90
10149;DHT22;5115;50.920;6.376;2023-09-07T07:01:02;24.50;99.90
10149;DHT22;5115;50.920;6.376;2023-09-07T07:03:30;24.70;99.90
10149;DHT22;5115;50.920;6.376;2023-09-07T07:05:56;25.00;99.90
10149;DHT22;5115;50.920;6.376;2023-09-07T07:08:22;25.20;99.90
10149;DHT22;5115;50.920;6.376;2023-09-07T07:10:48;25.80;99.90
10149;DHT22;5115;50.920;6.376;2023-09-07T07:13:14;26.20;99.90
10149;DHT22;5115;50.920;6.376;2023-09-07T07:15:40;26.60;99.90
10149;DHT22;5115;50.920;6.376;2023-09-07T07:18:05;26.90;99.90
10149;DHT22;5115;50.920;6.376;2023-09-07T07:20:43;26.70;99.90
10149;DHT22;5115;50.920;6.376;2023-09-07T07:23:10;26.90;99.90
10149;DHT22;5115;50.920;6.376;2023-09-07T07:25:35;27.10;99.90
10149;DHT22;5115;50.920;6.376;2023-09-07T07:28:03;27.80;99.90
10149;DHT22;5115;50.920;6.376;2023-09-07T07:30:36;28.20;99.90
10149;DHT22;5115;50.920;6.376;2023-09-07T07:33:03;28.40;99.90
10149;DHT22;5115;50.920;6.376;2023-09-07T07:35:31;28.70;99.90
10149;DHT22;5115;50.920;6.376;2023-09-07T07:37:57;28.30;99.90
10149;DHT22;5115;50.920;6.376;2023-09-07T07:40:23;28.80;99.90
10149;DHT22;5115;50.920;6.376;2023-09-07T07:42:51;29.30;99.90
10149;DHT22;5115;50.920;6.376;2023-09-07T07:45:17;29.00;99.90
10149;DHT22;5115;50.920;6.376;2023-09-07T07:47:45;29.00;99.90
10149;DHT22;5115;50.920;6.376;2023-09-07T07:50:11;29.50;99.90
10149;DHT22;5115;50.920;6.376;2023-09-07T07:52:36;29.40;99.90
10149;DHT22;5115;50.920;6.376;2023-09-07T07:55:02;30.10;99.90
10149;DHT22;5115;50.920;6.376;2023-09-07T07:57:28;30.60;99.90
10149;DHT22;5115;50.920;6.376;2023-09-07T07:59:55;31.30;99.90
10149;DHT22;5115;50.920;6.376;2023-09-07T08:02:20;30.80;99.90
10149;DHT22;5115;50.920;6.376;2023-09-07T08:04:46;30.90;99.90
10149;DHT22;5115;50.920;6.376;2023-09-07T08:07:11;31.20;99.90
10149;DHT22;5115;50.920;6.376;2023-09-07T08:09:37;31.40;99.90
10149;DHT22;5115;50.920;6.376;2023-09-07T08:12:03;32.20;99.90
10149;DHT22;5115;50.920;6.376;2023-09-07T08:14:29;31.90;99.90
10149;DHT22;5115;50.920;6.376;2023-09-07T08:16:56;32.10;99.90
10149;DHT22;5115;50.920;6.376;2023-09-07T08:19:21;32.10;99.90
10149;DHT22;5115;50.920;6.376;2023-09-07T08:21:47;32.20;99.90
10149;DHT22;5115;50.920;6.376;2023-09-07T08:24:13;32.50;99.90
10149;DHT22;5115;50.920;6.376;2023-09-07T08:26:38;33.00;99.90
10149;DHT22;5115;50.920;6.376;2023-09-07T08:29:04;33.50;99.90
10149;DHT22;5115;50.920;6.376;2023-09-07T08:31:35;33.30;99.90
10149;DHT22;5115;50.920;6.376;2023-09-07T08:34:06;32.80;99.90
10149;DHT22;5115;50.920;6.376;2023-09-07T08:36:32;32.90;99.90
10149;DHT22;5115;50.920;6.376;2023-09-07T08:39:00;32.90;99.90
10149;DHT22;5115;50.920;6.376;2023-09-07T08:41:28;32.50;99.90
10149;DHT22;5115;50.920;6.376;2023-09-07T08:43:54;32.60;99.90
10149;DHT22;5115;50.920;6.376;2023-09-07T08:46:23;32.80;99.90
10149;DHT22;5115;50.920;6.376;2023-09-07T08:48:52;33.70;99.90
10149;DHT22;5115;50.920;6.376;2023-09-07T08:51:18;33.70;99.90
10149;DHT22;5115;50.920;6.376;2023-09-07T08:53:44;33.80;99.90
10149;DHT22;5115;50.920;6.376;2023-09-07T08:56:16;34.30;99.90
10149;DHT22;5115;50.920;6.376;2023-09-07T08:58:42;34.40;99.80
10149;DHT22;5115;50.920;6.376;2023-09-07T09:01:10;33.80;99.90
10149;DHT22;5115;50.920;6.376;2023-09-07T09:03:36;33.00;99.90
10149;DHT22;5115;50.920;6.376;2023-09-07T09:06:03;32.40;99.90
10149;DHT22;5115;50.920;6.376;2023-09-07T09:08:29;31.80;99.90
10149;DHT22;5115;50.920;6.376;2023-09-07T09:11:02;31.70;99.90
10149;DHT22;5115;50.920;6.376;2023-09-07T09:13:32;31.90;99.90
10149;DHT22;5115;50.920;6.376;2023-09-07T09:15:59;31.30;99.90
10149;DHT22;5115;50.920;6.376;2023-09-07T09:18:29;31.20;99.90
10149;DHT22;5115;50.920;6.376;2023-09-07T09:20:55;30.60;99.90
10149;DHT22;5115;50.920;6.376;2023-09-07T09:23:21;30.60;99.90
10149;DHT22;5115;50.920;6.376;2023-09-07T09:25:49;30.50;99.90
10149;DHT22;5115;50.920;6.376;2023-09-07T09:28:15;30.30;99.90
10149;DHT22;5115;50.920;6.376;2023-09-07T09:30:41;30.60;99.90
10149;DHT22;5115;50.920;6.376;2023-09-07T09:33:10;30.80;99.90
10149;DHT22;5115;50.920;6.376;2023-09-07T09:35:37;30.20;99.90
10149;DHT22;5115;50.920;6.376;2023-09-07T09:38:03;30.30;99.90
10149;DHT22;5115;50.920;6.376;2023-09-07T09:40:33;30.30;99.90
10149;DHT22;5115;50.920;6.376;2023-09-07T09:43:02;30.40;99.90
10149;DHT22;5115;50.920;6.376;2023-09-07T09:45:29;30.70;99.90
10149;DHT22;5115;50.920;6.376;2023-09-07T09:47:55;30.70;99.90
10149;DHT22;5115;50.920;6.376;2023-09-07T09:50:27;31.10;99.90
10149;DHT22;5115;50.920;6.376;2023-09-07T09:52:54;30.80;99.90
10149;DHT22;5115;50.920;6.376;2023-09-07T09:55:20;31.40;99.90
10149;DHT22;5115;50.920;6.376;2023-09-07T09:57:47;31.80;99.90
10149;DHT22;5115;50.920;6.376;2023-09-07T10:00:13;31.80;99.90
10149;DHT22;5115;50.920;6.376;2023-09-07T10:02:58;32.00;99.90
10149;DHT22;5115;50.920;6.376;2023-09-07T10:05:26;32.00;99.90
10149;DHT22;5115;50.920;6.376;2023-09-07T10:07:52;31.30;99.90
10149;DHT22;5115;50.920;6.376;2023-09-07T10:10:20;31.50;99.90
10149;DHT22;5115;50.920;6.376;2023-09-07T10:12:52;32.00;99.90
10149;DHT22;5115;50.920;6.376;2023-09-07T10:15:26;31.80;99.90
10149;DHT22;5115;50.920;6.376;2023-09-07T10:18:16;31.70;99.90
10149;DHT22;5115;50.920;6.376;2023-09-07T10:20:58;30.70;99.90
10149;DHT22;5115;50.920;6.376;2023-09-07T10:23:41;30.40;99.90
10149;DHT22;5115;50.920;6.376;2023-09-07T10:26:15;30.60;99.90
10149;DHT22;5115;50.920;6.376;2023-09-07T10:28:42;30.50;99.90
10149;DHT22;5115;50.920;6.376;2023-09-07T10:31:16;30.70;99.90
10149;DHT22;5115;50.920;6.376;2023-09-07T10:33:42;30.90;99.90
10149;DHT22;5115;50.920;6.376;2023-09-07T10:36:07;31.20;99.90
10149;DHT22;5115;50.920;6.376;2023-09-07T10:38:34;31.10;99.90
10149;DHT22;5115;50.920;6.376;2023-09-07T10:41:03;31.20;99.90
10149;DHT22;5115;50.920;6.376;2023-09-07T10:43:31;31.00;99.90
10149;DHT22;5115;50.920;6.376;2023-09-07T10:45:58;31.10;99.90
10149;DHT22;5115;50.920;6.376;2023-09-07T10:48:24;31.20;99.90
10149;DHT22;5115;50.920;6.376;2023-09-07T10:50:51;31.50;99.90
10149;DHT22;5115;50.920;6.376;2023-09-07T10:53:28;31.40;99.90
10149;DHT22;5115;50.920;6.376;2023-09-07T10:55:56;31.10;99.90
10149;DHT22;5115;50.920;6.376;2023-09-07T10:58:34;31.10;99.90
10149;DHT22;5115;50.920;6.376;2023-09-07T11:01:01;31.50;99.90
10149;DHT22;5115;50.920;6.376;2023-09-07T11:03:29;31.70;99.90
10149;DHT22;5115;50.920;6.376;2023-09-07T11:06:01;31.50;99.90
10149;DHT22;5115;50.920;6.376;2023-09-07T11:08:29;31.20;99.90
10149;DHT22;5115;50.920;6.376;2023-09-07T11:10:55;31.30;99.90
10149;DHT22;5115;50.920;6.376;2023-09-07T11:13:25;31.60;99.90
10149;DHT22;5115;50.920;6.376;2023-09-07T11:15:53;32.00;99.90
10149;DHT22;5115;50.920;6.376;2023-09-07T11:18:21;32.20;99.90
10149;DHT22;5115;50.920;6.376;2023-09-07T11:20:47;32.10;99.90
10149;DHT22;5115;50.920;6.376;2023-09-07T11:23:13;32.20;99.90
10149;DHT22;5115;50.920;6.376;2023-09-07T11:25:39;32.10;99.90
10149;DHT22;5115;50.920;6.376;2023-09-07T11:28:06;31.50;99.90
10149;DHT22;5115;50.920;6.376;2023-09-07T11:30:35;31.50;99.90
10149;DHT22;5115;50.920;6.376;2023-09-07T11:33:07;31.40;99.90
10149;DHT22;5115;50.920;6.376;2023-09-07T11:35:34;31.00;99.90
10149;DHT22;5115;50.920;6.376;2023-09-07T11:38:01;31.20;99.90
10149;DHT22;5115;50.920;6.376;2023-09-07T11:40:27;31.10;99.90
10149;DHT22;5115;50.920;6.376;2023-09-07T11:42:53;31.10;99.90
10149;DHT22;5115;50.920;6.376;2023-09-07T11:45:19;31.00;99.90
10149;DHT22;5115;50.920;6.376;2023-09-07T11:47:45;30.90;99.90
10149;DHT22;5115;50.920;6.376;2023-09-07T11:50:11;30.90;99.90
10149;DHT22;5115;50.920;6.376;2023-09-07T11:52:36;31.10;99.90
10149;DHT22;5115;50.920;6.376;2023-09-07T11:55:02;31.10;99.90
10149;DHT22;5115;50.920;6.376;2023-09-07T11:57:29;30.90;99.90
10149;DHT22;5115;50.920;6.376;2023-09-07T11:59:54;31.00;99.90
10149;DHT22;5115;50.920;6.376;2023-09-07T12:02:20;30.90;99.90
10149;DHT22;5115;50.920;6.376;2023-09-07T12:04:47;30.70;99.90
10149;DHT22;5115;50.920;6.376;2023-09-07T12:07:13;30.70;99.90
10149;DHT22;5115;50.920;6.376;2023-09-07T12:09:39;30.60;99.90
10149;DHT22;5115;50.920;6.376;2023-09-07T12:12:04;30.70;99.90
10149;DHT22;5115;50.920;6.376;2023-09-07T12:14:30;30.70;99.90
10149;DHT22;5115;50.920;6.376;2023-09-07T12:16:56;30.70;99.90
10149;DHT22;5115;50.920;6.376;2023-09-07T12:19:22;30.60;99.90
10149;DHT22;5115;50.920;6.376;2023-09-07T12:21:48;30.20;99.90
10149;DHT22;5115;50.920;6.376;2023-09-07T12:24:13;30.00;99.90
10149;DHT22;5115;50.920;6.376;2023-09-07T12:26:39;30.00;99.90
10149;DHT22;5115;50.920;6.376;2023-09-07T12:29:05;30.10;99.90
10149;DHT22;5115;50.920;6.376;2023-09-07T12:31:31;30.00;99.90
10149;DHT22;5115;50.920;6.376;2023-09-07T12:33:57;29.90;99.90
10149;DHT22;5115;50.920;6.376;2023-09-07T12:36:22;29.90;99.90
10149;DHT22;5115;50.920;6.376;2023-09-07T12:38:48;29.70;99.90
10149;DHT22;5115;50.920;6.376;2023-09-07T12:41:15;29.70;99.90
10149;DHT22;5115;50.920;6.376;2023-09-07T12:43:41;29.80;99.90
10149;DHT22;5115;50.920;6.376;2023-09-07T12:46:08;29.90;99.90
10149;DHT22;5115;50.920;6.376;2023-09-07T12:48:34;29.90;99.90
10149;DHT22;5115;50.920;6.376;2023-09-07T12:51:00;29.90;99.90
10149;DHT22;5115;50.920;6.376;2023-09-07T12:53:25;29.90;99.90
10149;DHT22;5115;50.920;6.376;2023-09-07T12:55:54;29.90;99.90
10149;DHT22;5115;50.920;6.376;2023-09-07T12:58:20;29.90;99.90
10149;DHT22;5115;50.920;6.376;2023-09-07T13:00:46;29.60;99.90
10149;DHT22;5115;50.920;6.376;2023-09-07T13:03:14;29.70;99.90
10149;DHT22;5115;50.920;6.376;2023-09-07T13:05:39;29.60;99.90
10149;DHT22;5115;50.920;6.376;2023-09-07T13:08:05;29.60;99.90
10149;DHT22;5115;50.920;6.376;2023-09-07T13:10:32;29.60;99.90
10149;DHT22;5115;50.920;6.376;2023-09-07T13:12:58;29.50;99.90
10149;DHT22;5115;50.920;6.376;2023-09-07T13:15:23;29.60;99.90
10149;DHT22;5115;50.920;6.376;2023-09-07T13:17:49;29.70;99.90
10149;DHT22;5115;50.920;6.376;2023-09-07T13:20:14;29.70;99.90
10149;DHT22;5115;50.920;6.376;2023-09-07T13:22:41;29.70;99.90
10149;DHT22;5115;50.920;6.376;2023-09-07T13:25:07;29.60;99.90
10149;DHT22;5115;50.920;6.376;2023-09-07T13:27:33;29.50;99.90
10149;DHT22;5115;50.920;6.376;2023-09-07T13:29:58;29.60;99.90
10149;DHT22;5115;50.920;6.376;2023-09-07T13:32:25;29.70;99.90
10149;DHT22;5115;50.920;6.376;2023-09-07T13:34:50;29.90;99.90
10149;DHT22;5115;50.920;6.376;2023-09-07T13:37:16;29.90;99.90
10149;DHT22;5115;50.920;6.376;2023-09-07T13:39:41;30.00;99.90
10149;DHT22;5115;50.920;6.376;2023-09-07T13:42:07;30.00;99.90
10149;DHT22;5115;50.920;6.376;2023-09-07T13:44:32;29.90;99.90
10149;DHT22;5115;50.920;6.376;2023-09-07T13:46:58;29.90;99.90
10149;DHT22;5115;50.920;6.376;2023-09-07T13:49:23;30.10;99.90
10149;DHT22;5115;50.920;6.376;2023-09-07T13:51:49;29.90;99.90
10149;DHT22;5115;50.920;6.376;2023-09-07T13:54:14;29.90;99.90
10149;DHT22;5115;50.920;6.376;2023-09-07T13:56:40;29.90;99.90
10149;DHT22;5115;50.920;6.376;2023-09-07T13:59:07;30.00;99.90
10149;DHT22;5115;50.920;6.376;2023-09-07T14:01:33;30.00;99.90
10149;DHT22;5115;50.920;6.376;2023-09-07T14:03:58;30.00;99.90
10149;DHT22;5115;50.920;6.376;2023-09-07T14:06:24;29.90;99.90
10149;DHT22;5115;50.920;6.376;2023-09-07T14:08:50;29.90;99.90
10149;DHT22;5115;50.920;6.376;2023-09-07T14:11:17;29.90;99.90
10149;DHT22;5115;50.920;6.376;2023-09-07T14:13:42;29.80;99.90
10149;DHT22;5115;50.920;6.376;2023-09-07T14:16:08;29.90;99.90
10149;DHT22;5115;50.920;6.376;2023-09-07T14:18:38;29.90;99.90
10149;DHT22;5115;50.920;6.376;2023-09-07T14:21:04;29.90;99.90
10149;DHT22;5115;50.920;6.376;2023-09-07T14:23:29;30.00;99.90
10149;DHT22;5115;50.920;6.376;2023-09-07T14:25:55;30.00;99.90
10149;DHT22;5115;50.920;6.376;2023-09-07T14:28:21;30.00;99.90
10149;DHT22;5115;50.920;6.376;2023-09-07T14:30:47;30.00;99.90
10149;DHT22;5115;50.920;6.376;2023-09-07T14:33:13;29.90;99.90
10149;DHT22;5115;50.920;6.376;2023-09-07T14:35:38;30.00;99.90
10149;DHT22;5115;50.920;6.376;2023-09-07T14:38:05;30.00;99.90
10149;DHT22;5115;50.920;6.376;2023-09-07T14:40:30;30.00;99.90
10149;DHT22;5115;50.920;6.376;2023-09-07T14:42:56;30.00;99.90
10149;DHT22;5115;50.920;6.376;2023-09-07T14:45:23;30.00;99.90
10149;DHT22;5115;50.920;6.376;2023-09-07T14:47:50;30.00;99.90
10149;DHT22;5115;50.920;6.376;2023-09-07T14:50:16;30.00;99.90
10149;DHT22;5115;50.920;6.376;2023-09-07T14:52:41;30.00;99.90
10149;DHT22;5115;50.920;6.376;2023-09-07T14:55:09;30.10;99.90
10149;DHT22;5115;50.920;6.376;2023-09-07T14:57:35;30.00;99.90
10149;DHT22;5115;50.920;6.376;2023-09-07T15:00:01;30.00;99.90
10149;DHT22;5115;50.920;6.376;2023-09-07T15:02:26;30.00;99.90
10149;DHT22;5115;50.920;6.376;2023-09-07T15:04:52;30.00;99.90
10149;DHT22;5115;50.920;6.376;2023-09-07T15:07:17;30.00;99.90
10149;DHT22;5115;50.920;6.376;2023-09-07T15:09:44;30.00;99.90
10149;DHT22;5115;50.920;6.376;2023-09-07T15:12:09;30.00;99.90
10149;DHT22;5115;50.920;6.376;2023-09-07T15:14:36;30.10;99.90
10149;DHT22;5115;50.920;6.376;2023-09-07T15:17:02;30.10;99.90
10149;DHT22;5115;50.920;6.376;2023-09-07T15:19:27;30.10;99.90
10149;DHT22;5115;50.920;6.376;2023-09-07T15:21:53;30.00;99.90
10149;DHT22;5115;50.920;6.376;2023-09-07T15:24:18;30.00;99.90
10149;DHT22;5115;50.920;6.376;2023-09-07T15:26:45;30.00;99.90
10149;DHT22;5115;50.920;6.376;2023-09-07T15:29:11;30.00;99.90
10149;DHT22;5115;50.920;6.376;2023-09-07T15:31:37;30.00;99.90
10149;DHT22;5115;50.920;6.376;2023-09-07T15:34:03;30.00;99.90
10149;DHT22;5115;50.920;6.376;2023-09-07T15:36:29;30.00;99.90
10149;DHT22;5115;50.920;6.376;2023-09-07T15:38:54;29.80;99.90
10149;DHT22;5115;50.920;6.376;2023-09-07T15:41:20;30.00;99.90